Time;durP1;ratioP1;P1;durP2;ratioP2;P2;SDS_P1;SDS_P2;PMS_P1;PMS_P2;Temp;Humidity;BMP_temperature;BMP_pressure;BME280_temperature;BME280_humidity;BME280_pressure;Samples;Min_cycle;Max_cycle;Signal;HPM_P1;HPM_P2
2022/01/21 17:55:04;;;;;;;12.90;12.50;;;19.10;57.40;;;;;;4924464;29;20463;-53
2022/01/21 17:57:33;;;;;;;13.47;12.87;;;19.10;57.60;;;;;;4913286;29;20863;-51
2022/01/21 18:00:00;;;;;;;12.60;12.20;;;18.90;57.40;;;;;;4913841;29;20485;-51
2022/01/21 18:02:27;;;;;;;12.70;12.30;;;18.90;57.40;;;;;;4913198;29;20465;-54
2022/01/21 18:04:54;;;;;;;13.20;12.80;;;18.70;57.60;;;;;;4912289;29;20458;-59
2022/01/21 18:07:21;;;;;;;12.37;11.97;;;18.70;57.90;;;;;;4910593;29;20936;-51
2022/01/21 18:09:48;;;;;;;12.90;12.50;;;18.60;58.00;;;;;;4915110;29;20462;-52
2022/01/21 18:12:15;;;;;;;11.80;11.50;;;18.60;58.30;;;;;;4913263;29;20460;-48
2022/01/21 18:14:44;;;;;;;11.35;11.05;;;18.60;58.40;;;;;;4915466;29;20470;-47
2022/01/21 18:17:12;;;;;;;13.63;13.13;;;18.60;58.40;;;;;;4915609;29;20249;-50
2022/01/21 18:19:46;;;;;;;12.80;12.30;;;18.60;58.00;;;;;;4915537;29;20462;-50
2022/01/21 18:22:15;;;;;;;13.10;12.60;;;18.50;58.00;;;;;;4923481;29;20499;-50
2022/01/21 18:24:42;;;;;;;12.35;11.85;;;18.50;58.20;;;;;;4917940;29;20462;-49
2022/01/21 18:27:09;;;;;;;13.67;13.07;;;18.50;58.20;;;;;;4914179;29;20572;-49
2022/01/21 18:29:37;;;;;;;13.50;13.00;;;18.50;58.30;;;;;;4914259;29;20522;-50
2022/01/21 18:32:06;;;;;;;13.37;12.87;;;18.50;58.50;;;;;;4914109;29;20454;-48
2022/01/21 18:34:32;;;;;;;12.30;12.00;;;18.40;58.60;;;;;;4920733;29;20461;-49
2022/01/21 18:37:00;;;;;;;13.17;12.77;;;18.30;58.90;;;;;;4929493;29;21041;-50
2022/01/21 18:39:28;;;;;;;13.10;12.60;;;18.30;59.40;;;;;;4932051;29;20453;-49
2022/01/21 18:41:56;;;;;;;12.73;12.33;;;18.10;59.40;;;;;;4916568;29;20458;-49
2022/01/21 18:44:25;;;;;;;13.33;12.73;;;18.10;59.80;;;;;;4916139;29;20843;-49
2022/01/21 19:37:25;;;;;;;12.73;12.33;;;22.60;49.00;;;;;;4917236;29;20481;-51
2022/01/21 19:39:52;;;;;;;13.20;12.80;;;22.60;48.90;;;;;;4917554;29;20457;-51
2022/01/21 19:42:19;;;;;;;13.60;13.00;;;22.60;48.80;;;;;;4917422;29;20450;-55
2022/01/21 19:44:46;;;;;;;14.27;13.60;;;22.60;48.80;;;;;;4917490;29;20458;-52
2022/01/21 19:47:16;;;;;;;12.50;12.10;;;22.50;48.70;;;;;;4916931;29;20483;-53
2022/01/21 19:49:43;;;;;;;13.40;12.90;;;22.50;48.60;;;;;;4917433;29;20457;-53
2022/01/21 19:52:10;;;;;;;12.90;12.50;;;22.50;48.50;;;;;;4917431;29;20453;-52
2022/01/21 19:54:38;;;;;;;12.43;12.00;;;22.50;48.40;;;;;;4917341;29;20466;-51
2022/01/21 19:57:22;;;;;;;13.33;12.93;;;22.40;48.30;;;;;;4917178;29;20581;-50
2022/01/21 19:59:57;;;;;;;12.50;12.00;;;22.30;48.30;;;;;;4917167;29;20487;-52
2022/01/21 20:02:41;;;;;;;12.40;12.00;;;22.30;48.20;;;;;;4917181;29;20458;-53
2022/01/21 20:10:38;;;;;;;12.63;12.23;;;21.90;48.40;;;;;;4920792;29;20804;-52
2022/01/21 20:13:13;;;;;;;12.43;12.03;;;21.90;48.50;;;;;;4920662;29;20450;-51
2022/01/21 20:15:40;;;;;;;13.27;12.80;;;21.80;48.50;;;;;;4920620;29;20974;-53
2022/01/21 20:18:14;;;;;;;13.03;12.63;;;21.70;48.50;;;;;;4920634;29;20478;-52
2022/01/21 20:20:42;;;;;;;12.87;12.47;;;21.60;48.50;;;;;;4920456;29;20454;-55
2022/01/21 20:23:10;;;;;;;12.93;12.53;;;21.60;48.60;;;;;;4920954;29;20519;-51
2022/01/21 20:25:38;;;;;;;13.73;13.23;;;21.50;48.80;;;;;;4920498;29;20557;-54
2022/01/21 20:28:05;;;;;;;14.20;13.70;;;21.40;48.80;;;;;;4920754;29;20466;-52
2022/01/21 20:30:33;;;;;;;13.53;13.13;;;21.30;48.90;;;;;;4920515;29;20940;-51
2022/01/21 20:33:02;;;;;;;13.80;13.40;;;21.20;49.00;;;;;;4920653;29;20457;-52
2022/01/21 20:35:30;;;;;;;13.87;13.37;;;21.20;49.10;;;;;;4920162;29;20545;-53
2022/01/21 20:37:57;;;;;;;14.10;13.50;;;21.00;49.10;;;;;;4920033;29;20850;-53
2022/01/21 20:40:33;;;;;;;13.13;12.77;;;21.00;49.30;;;;;;4919900;29;20470;-54
2022/01/21 20:43:01;;;;;;;13.20;12.80;;;20.90;49.30;;;;;;4920428;29;20999;-54
2022/01/21 20:45:29;;;;;;;13.60;13.10;;;20.90;49.40;;;;;;4919329;29;20477;-54
2022/01/21 20:47:56;;;;;;;13.27;12.80;;;20.80;49.50;;;;;;4919756;29;20455;-51
2022/01/21 20:50:23;;;;;;;13.00;12.60;;;20.70;49.60;;;;;;4919884;29;20534;-52
2022/01/21 20:52:51;;;;;;;14.00;13.50;;;20.60;49.70;;;;;;4919985;29;20446;-53
2022/01/21 20:55:18;;;;;;;13.23;12.83;;;20.50;49.80;;;;;;4919259;29;20986;-50
2022/01/21 20:57:45;;;;;;;12.80;12.40;;;20.50;50.00;;;;;;4919469;29;20486;-51
2022/01/21 21:00:15;;;;;;;12.60;12.20;;;20.40;50.00;;;;;;4919509;29;20454;-55
2022/01/21 21:02:42;;;;;;;12.30;11.90;;;20.30;50.10;;;;;;4919502;29;20506;-51
2022/01/21 21:05:09;;;;;;;11.83;11.53;;;20.30;50.20;;;;;;4919268;29;20453;-50
2022/01/21 21:07:36;;;;;;;11.57;11.17;;;20.20;50.30;;;;;;4919571;29;20467;-54
2022/01/21 21:10:03;;;;;;;12.50;12.10;;;20.10;50.40;;;;;;4919533;29;20956;-56
2022/01/21 21:12:30;;;;;;;11.90;11.50;;;20.00;50.50;;;;;;4919253;29;20457;-51
2022/01/21 21:15:02;;;;;;;11.90;11.60;;;20.00;50.70;;;;;;4919049;29;20456;-50
2022/01/21 21:17:46;;;;;;;12.67;11.97;;;19.90;50.70;;;;;;4917956;29;20490;-52
2022/01/21 21:25:50;;;;;;;11.03;10.63;;;19.70;51.00;;;;;;4918666;29;20449;-54
2022/01/21 21:28:23;;;;;;;12.80;12.30;;;19.60;51.20;;;;;;4919095;29;20450;-55
2022/01/21 21:31:18;;;;;;;11.70;11.20;;;19.40;51.20;;;;;;4918453;29;20987;-51
2022/01/21 22:02:54;;;;;;;11.30;11.00;;;19.00;52.10;;;;;;4918700;29;20486;-50
2022/01/21 22:51:41;;;;;;;11.87;11.57;;;17.50;55.60;;;;;;4905693;29;20482;-50
2022/01/21 22:59:55;;;;;;;11.37;10.97;;;17.40;56.20;;;;;;4919312;29;20434;-53
2022/01/21 23:02:25;;;;;;;11.17;10.87;;;17.40;56.20;;;;;;4919090;29;20462;-51
2022/01/21 23:04:52;;;;;;;11.83;11.53;;;17.40;56.30;;;;;;4918791;29;20972;-53
2022/01/21 23:07:20;;;;;;;12.67;12.23;;;17.40;56.40;;;;;;4919324;29;20470;-52
2022/01/21 23:09:47;;;;;;;12.10;11.80;;;17.30;56.40;;;;;;4919459;29;20473;-51
2022/01/21 23:12:15;;;;;;;11.70;11.30;;;17.30;56.50;;;;;;4920250;29;20454;-55
2022/01/21 23:14:42;;;;;;;12.07;11.67;;;17.20;56.50;;;;;;4920049;29;20461;-51
2022/01/21 23:17:09;;;;;;;11.30;10.90;;;17.20;56.70;;;;;;4919033;29;20903;-50
2022/01/21 23:19:36;;;;;;;11.43;11.13;;;17.20;56.90;;;;;;4919625;29;20457;-53
2022/01/21 23:22:03;;;;;;;11.77;11.47;;;17.20;56.90;;;;;;4918869;29;20482;-52
2022/01/21 23:24:32;;;;;;;11.67;11.27;;;17.10;56.90;;;;;;4919149;29;20447;-52
2022/01/21 23:26:59;;;;;;;11.33;11.00;;;17.10;57.10;;;;;;4919935;29;20947;-54
2022/01/21 23:29:27;;;;;;;12.03;11.50;;;16.90;57.10;;;;;;4919841;29;20450;-53
2022/01/21 23:31:55;;;;;;;11.07;10.77;;;16.90;57.40;;;;;;4920104;29;20457;-55
2022/01/21 23:34:32;;;;;;;11.40;11.10;;;16.90;57.40;;;;;;4917078;29;20450;-53
2022/01/21 23:37:03;;;;;;;11.80;11.40;;;16.80;57.50;;;;;;4918267;29;21018;-51
2022/01/21 23:39:43;;;;;;;11.40;11.10;;;16.80;57.70;;;;;;4919197;29;20587;-50
2022/01/21 23:42:13;;;;;;;12.00;11.50;;;16.80;57.90;;;;;;4919016;29;20454;-52
2022/01/21 23:44:42;;;;;;;11.73;11.43;;;16.70;58.00;;;;;;4918978;29;20455;-54
2022/01/21 23:47:13;;;;;;;11.43;11.03;;;16.70;58.10;;;;;;4918119;29;20556;-52
2022/01/21 23:49:43;;;;;;;11.27;10.97;;;16.70;58.20;;;;;;4919233;29;20867;-52
2022/01/21 23:52:11;;;;;;;11.50;11.20;;;16.70;58.30;;;;;;4919641;29;20481;-51
2022/01/21 23:54:38;;;;;;;12.40;12.00;;;16.70;58.40;;;;;;4919011;29;20459;-50
2022/01/21 23:57:06;;;;;;;12.03;11.67;;;16.60;58.40;;;;;;4918430;29;20498;-51
2022/01/21 23:59:33;;;;;;;11.67;11.33;;;16.60;58.60;;;;;;4919528;29;20968;-50
